Decoded Metar for KBRY ( in ) (IATA:) | Meteo·Mobile Aviation Weather
aviador You're here:

KBRY Decoded Metar

in
Report Time2019-10-21 00:35:00
UTC Time2019-10-21 00:41:05
Flight Rules vfr VFR
WindCalm
Visibility9999 m
Phenomena:N/A
Clouds:N/A
Expected CloudBase > 1,200 ft AGL from Temp-Dew spread
CeilingNone
Temp15°C
Dew Point12°C (82% RH)
QNH1014 hPa
Raw Report
METAR KBRY 210035Z AUTO 00000KT 10SM CLR 15/12 A2993 RMK AO1=

Extra information for KBRY:More info

Social comments